sensor_id;sensor_type;location;lat;lon;timestamp;pressure;altitude;pressure_sealevel;temperature;humidity
14067;BME280;7108;42.684;23.350;2024-03-08T00:00:16;95445.47;;;7.26;100.00
14067;BME280;7108;42.684;23.350;2024-03-08T00:02:44;95448.72;;;7.32;100.00
14067;BME280;7108;42.684;23.350;2024-03-08T00:05:10;95448.13;;;7.26;100.00
14067;BME280;7108;42.684;23.350;2024-03-08T00:07:37;95445.47;;;7.26;100.00
14067;BME280;7108;42.684;23.350;2024-03-08T00:10:12;95446.03;;;7.32;100.00
14067;BME280;7108;42.684;23.350;2024-03-08T00:12:42;95444.59;;;7.34;100.00
14067;BME280;7108;42.684;23.350;2024-03-08T00:15:12;95438.91;;;7.36;100.00
14067;BME280;7108;42.684;23.350;2024-03-08T00:17:39;95445.25;;;7.31;100.00
14067;BME280;7108;42.684;23.350;2024-03-08T00:20:05;95434.84;;;7.18;100.00
14067;BME280;7108;42.684;23.350;2024-03-08T00:22:37;95440.66;;;7.20;100.00
14067;BME280;7108;42.684;23.350;2024-03-08T00:25:03;95430.00;;;7.12;100.00
14067;BME280;7108;42.684;23.350;2024-03-08T00:27:29;95444.63;;;7.14;100.00
14067;BME280;7108;42.684;23.350;2024-03-08T00:29:58;95439.81;;;7.08;100.00
14067;BME280;7108;42.684;23.350;2024-03-08T00:32:24;95435.34;;;7.00;100.00
14067;BME280;7108;42.684;23.350;2024-03-08T00:34:50;95424.72;;;6.91;100.00
14067;BME280;7108;42.684;23.350;2024-03-08T00:37:17;95422.25;;;6.86;100.00
14067;BME280;7108;42.684;23.350;2024-03-08T00:39:43;95442.84;;;6.86;100.00
14067;BME280;7108;42.684;23.350;2024-03-08T00:42:08;95416.50;;;6.76;100.00
14067;BME280;7108;42.684;23.350;2024-03-08T00:44:34;95419.38;;;6.71;100.00
14067;BME280;7108;42.684;23.350;2024-03-08T00:46:59;95427.88;;;6.73;100.00
14067;BME280;7108;42.684;23.350;2024-03-08T00:49:25;95420.69;;;6.65;100.00
14067;BME280;7108;42.684;23.350;2024-03-08T00:51:50;95430.53;;;6.73;100.00
14067;BME280;7108;42.684;23.350;2024-03-08T00:54:15;95421.69;;;6.60;100.00
14067;BME280;7108;42.684;23.350;2024-03-08T00:56:42;95421.00;;;6.63;100.00
14067;BME280;7108;42.684;23.350;2024-03-08T00:59:07;95426.00;;;6.53;100.00
14067;BME280;7108;42.684;23.350;2024-03-08T01:01:33;95423.31;;;6.53;100.00
14067;BME280;7108;42.684;23.350;2024-03-08T01:03:58;95404.63;;;6.45;100.00
14067;BME280;7108;42.684;23.350;2024-03-08T01:06:23;95428.97;;;6.51;100.00
14067;BME280;7108;42.684;23.350;2024-03-08T01:08:49;95423.50;;;6.48;100.00
14067;BME280;7108;42.684;23.350;2024-03-08T01:11:17;95400.25;;;6.40;100.00
14067;BME280;7108;42.684;23.350;2024-03-08T01:13:43;95392.28;;;6.32;100.00
14067;BME280;7108;42.684;23.350;2024-03-08T01:16:08;95396.69;;;6.36;100.00
14067;BME280;7108;42.684;23.350;2024-03-08T01:18:34;95399.75;;;6.26;100.00
14067;BME280;7108;42.684;23.350;2024-03-08T01:21:00;95404.00;;;6.27;100.00
14067;BME280;7108;42.684;23.350;2024-03-08T01:23:25;95414.59;;;6.36;100.00
14067;BME280;7108;42.684;23.350;2024-03-08T01:25:51;95392.50;;;6.27;100.00
14067;BME280;7108;42.684;23.350;2024-03-08T01:28:23;95407.63;;;6.43;100.00
14067;BME280;7108;42.684;23.350;2024-03-08T01:30:49;95401.03;;;6.41;100.00
14067;BME280;7108;42.684;23.350;2024-03-08T01:33:15;95376.25;;;6.32;100.00
14067;BME280;7108;42.684;23.350;2024-03-08T01:35:40;95401.56;;;6.54;100.00
14067;BME280;7108;42.684;23.350;2024-03-08T01:38:06;95407.34;;;6.56;100.00
14067;BME280;7108;42.684;23.350;2024-03-08T01:40:32;95400.84;;;6.66;100.00
14067;BME280;7108;42.684;23.350;2024-03-08T01:42:57;95398.09;;;6.74;100.00
14067;BME280;7108;42.684;23.350;2024-03-08T01:45:40;95395.28;;;6.71;100.00
14067;BME280;7108;42.684;23.350;2024-03-08T01:48:09;95388.69;;;6.68;100.00
14067;BME280;7108;42.684;23.350;2024-03-08T01:50:35;95389.16;;;6.70;100.00
14067;BME280;7108;42.684;23.350;2024-03-08T01:53:01;95392.66;;;6.83;100.00
14067;BME280;7108;42.684;23.350;2024-03-08T01:55:27;95390.66;;;6.92;100.00
14067;BME280;7108;42.684;23.350;2024-03-08T01:57:53;95382.41;;;6.97;100.00
14067;BME280;7108;42.684;23.350;2024-03-08T02:00:19;95380.53;;;6.97;100.00
14067;BME280;7108;42.684;23.350;2024-03-08T02:02:46;95384.69;;;7.07;100.00
14067;BME280;7108;42.684;23.350;2024-03-08T02:05:12;95376.63;;;7.07;100.00
14067;BME280;7108;42.684;23.350;2024-03-08T02:07:41;95364.81;;;7.08;100.00
14067;BME280;7108;42.684;23.350;2024-03-08T02:10:09;95353.63;;;7.06;100.00
14067;BME280;7108;42.684;23.350;2024-03-08T02:12:35;95368.50;;;7.15;100.00
14067;BME280;7108;42.684;23.350;2024-03-08T02:15:01;95365.50;;;7.16;100.00
14067;BME280;7108;42.684;23.350;2024-03-08T02:17:26;95377.34;;;7.27;100.00
14067;BME280;7108;42.684;23.350;2024-03-08T02:19:51;95375.78;;;7.26;100.00
14067;BME280;7108;42.684;23.350;2024-03-08T02:22:17;95383.38;;;7.36;100.00
14067;BME280;7108;42.684;23.350;2024-03-08T02:24:43;95383.09;;;7.38;100.00
14067;BME280;7108;42.684;23.350;2024-03-08T02:27:08;95388.75;;;7.36;100.00
14067;BME280;7108;42.684;23.350;2024-03-08T02:29:37;95381.88;;;7.03;100.00
14067;BME280;7108;42.684;23.350;2024-03-08T02:32:02;95373.53;;;7.05;100.00
14067;BME280;7108;42.684;23.350;2024-03-08T02:34:28;95384.84;;;7.22;100.00
14067;BME280;7108;42.684;23.350;2024-03-08T02:36:54;95381.25;;;7.18;100.00
14067;BME280;7108;42.684;23.350;2024-03-08T02:39:21;95386.78;;;7.01;100.00
14067;BME280;7108;42.684;23.350;2024-03-08T02:41:47;95385.19;;;6.88;100.00
14067;BME280;7108;42.684;23.350;2024-03-08T02:44:12;95375.03;;;6.61;100.00
14067;BME280;7108;42.684;23.350;2024-03-08T02:46:38;95381.97;;;6.62;100.00
14067;BME280;7108;42.684;23.350;2024-03-08T02:49:03;95376.69;;;6.54;100.00
14067;BME280;7108;42.684;23.350;2024-03-08T02:51:29;95387.78;;;6.64;100.00
14067;BME280;7108;42.684;23.350;2024-03-08T02:53:56;95388.34;;;6.70;100.00
14067;BME280;7108;42.684;23.350;2024-03-08T02:56:21;95376.69;;;6.54;100.00
14067;BME280;7108;42.684;23.350;2024-03-08T02:58:47;95375.13;;;6.53;100.00
14067;BME280;7108;42.684;23.350;2024-03-08T03:01:14;95369.78;;;6.53;100.00
14067;BME280;7108;42.684;23.350;2024-03-08T03:03:40;95376.16;;;6.60;100.00
14067;BME280;7108;42.684;23.350;2024-03-08T03:06:06;95372.56;;;6.56;100.00
14067;BME280;7108;42.684;23.350;2024-03-08T03:08:32;95380.09;;;6.63;100.00
14067;BME280;7108;42.684;23.350;2024-03-08T03:10:57;95369.94;;;6.68;100.00
14067;BME280;7108;42.684;23.350;2024-03-08T03:13:23;95363.97;;;6.51;100.00
14067;BME280;7108;42.684;23.350;2024-03-08T03:15:48;95384.22;;;6.72;100.00
14067;BME280;7108;42.684;23.350;2024-03-08T03:18:14;95369.88;;;6.56;100.00
14067;BME280;7108;42.684;23.350;2024-03-08T03:20:40;95383.31;;;6.68;100.00
14067;BME280;7108;42.684;23.350;2024-03-08T03:23:08;95380.84;;;6.63;100.00
14067;BME280;7108;42.684;23.350;2024-03-08T03:25:34;95374.81;;;6.54;100.00
14067;BME280;7108;42.684;23.350;2024-03-08T03:28:03;95383.53;;;6.63;100.00
14067;BME280;7108;42.684;23.350;2024-03-08T03:30:29;95396.78;;;6.60;100.00
14067;BME280;7108;42.684;23.350;2024-03-08T03:33:01;95377.28;;;6.59;100.00
14067;BME280;7108;42.684;23.350;2024-03-08T03:35:27;95391.69;;;6.67;100.00
14067;BME280;7108;42.684;23.350;2024-03-08T03:37:53;95387.66;;;6.61;100.00
14067;BME280;7108;42.684;23.350;2024-03-08T03:40:31;95399.84;;;6.70;100.00
14067;BME280;7108;42.684;23.350;2024-03-08T03:42:57;95402.34;;;6.75;100.00
14067;BME280;7108;42.684;23.350;2024-03-08T03:45:23;95402.97;;;6.72;100.00
14067;BME280;7108;42.684;23.350;2024-03-08T03:47:48;95400.97;;;6.69;100.00
14067;BME280;7108;42.684;23.350;2024-03-08T03:50:14;95405.97;;;6.71;100.00
14067;BME280;7108;42.684;23.350;2024-03-08T03:52:39;95390.59;;;6.68;100.00
14067;BME280;7108;42.684;23.350;2024-03-08T03:55:05;95409.16;;;6.85;100.00
14067;BME280;7108;42.684;23.350;2024-03-08T03:57:31;95393.50;;;6.75;100.00
14067;BME280;7108;42.684;23.350;2024-03-08T03:59:56;95407.00;;;6.78;100.00
14067;BME280;7108;42.684;23.350;2024-03-08T04:02:24;95402.47;;;6.79;100.00
14067;BME280;7108;42.684;23.350;2024-03-08T04:04:49;95412.63;;;6.85;100.00
14067;BME280;7108;42.684;23.350;2024-03-08T04:07:14;95422.94;;;6.95;100.00
14067;BME280;7108;42.684;23.350;2024-03-08T04:09:40;95405.63;;;6.93;100.00
14067;BME280;7108;42.684;23.350;2024-03-08T04:12:06;95417.69;;;6.99;100.00
14067;BME280;7108;42.684;23.350;2024-03-08T04:14:32;95413.06;;;6.87;100.00
14067;BME280;7108;42.684;23.350;2024-03-08T04:16:58;95424.25;;;6.69;100.00
14067;BME280;7108;42.684;23.350;2024-03-08T04:19:23;95423.00;;;6.66;100.00
14067;BME280;7108;42.684;23.350;2024-03-08T04:21:49;95422.00;;;6.39;100.00
14067;BME280;7108;42.684;23.350;2024-03-08T04:24:15;95444.38;;;6.34;100.00
14067;BME280;7108;42.684;23.350;2024-03-08T04:26:42;95437.19;;;6.47;100.00
14067;BME280;7108;42.684;23.350;2024-03-08T04:29:07;95418.91;;;6.28;100.00
14067;BME280;7108;42.684;23.350;2024-03-08T04:31:33;95441.78;;;6.46;100.00
14067;BME280;7108;42.684;23.350;2024-03-08T04:33:58;95436.28;;;6.43;100.00
14067;BME280;7108;42.684;23.350;2024-03-08T04:36:23;95442.41;;;6.43;100.00
14067;BME280;7108;42.684;23.350;2024-03-08T04:38:50;95456.78;;;6.39;100.00
14067;BME280;7108;42.684;23.350;2024-03-08T04:41:16;95452.41;;;6.34;100.00
14067;BME280;7108;42.684;23.350;2024-03-08T04:43:42;95451.44;;;6.10;100.00
14067;BME280;7108;42.684;23.350;2024-03-08T04:46:08;95463.34;;;6.21;100.00
14067;BME280;7108;42.684;23.350;2024-03-08T04:48:33;95461.19;;;6.14;100.00
14067;BME280;7108;42.684;23.350;2024-03-08T04:51:02;95468.06;;;6.24;100.00
14067;BME280;7108;42.684;23.350;2024-03-08T04:53:28;95464.53;;;6.32;100.00
14067;BME280;7108;42.684;23.350;2024-03-08T04:55:54;95466.38;;;6.40;100.00
14067;BME280;7108;42.684;23.350;2024-03-08T04:58:20;95466.97;;;6.45;100.00
14067;BME280;7108;42.684;23.350;2024-03-08T05:00:46;95470.06;;;6.55;100.00
14067;BME280;7108;42.684;23.350;2024-03-08T05:03:11;95460.13;;;6.56;100.00
14067;BME280;7108;42.684;23.350;2024-03-08T05:05:37;95456.66;;;6.55;100.00
14067;BME280;7108;42.684;23.350;2024-03-08T05:08:02;95466.78;;;6.70;100.00
14067;BME280;7108;42.684;23.350;2024-03-08T05:10:28;95468.66;;;6.70;100.00
14067;BME280;7108;42.684;23.350;2024-03-08T05:12:53;95467.94;;;6.61;100.00
14067;BME280;7108;42.684;23.350;2024-03-08T05:15:18;95480.22;;;6.62;100.00
14067;BME280;7108;42.684;23.350;2024-03-08T05:17:46;95485.97;;;6.52;100.00
14067;BME280;7108;42.684;23.350;2024-03-08T05:20:11;95489.91;;;6.54;100.00
14067;BME280;7108;42.684;23.350;2024-03-08T05:22:38;95489.69;;;6.59;100.00
14067;BME280;7108;42.684;23.350;2024-03-08T05:25:05;95495.25;;;6.54;100.00
14067;BME280;7108;42.684;23.350;2024-03-08T05:27:33;95495.16;;;6.43;100.00
14067;BME280;7108;42.684;23.350;2024-03-08T05:29:59;95507.53;;;6.55;100.00
14067;BME280;7108;42.684;23.350;2024-03-08T05:32:25;95495.81;;;6.40;100.00
14067;BME280;7108;42.684;23.350;2024-03-08T05:34:50;95515.59;;;6.47;100.00
14067;BME280;7108;42.684;23.350;2024-03-08T05:37:15;95517.03;;;6.45;100.00
14067;BME280;7108;42.684;23.350;2024-03-08T05:39:41;95517.66;;;6.42;100.00
14067;BME280;7108;42.684;23.350;2024-03-08T05:42:06;95524.00;;;6.37;100.00
14067;BME280;7108;42.684;23.350;2024-03-08T05:44:34;95529.63;;;6.44;100.00
14067;BME280;7108;42.684;23.350;2024-03-08T05:46:59;95527.31;;;6.34;100.00
14067;BME280;7108;42.684;23.350;2024-03-08T05:49:25;95532.53;;;6.31;100.00
14067;BME280;7108;42.684;23.350;2024-03-08T05:51:50;95537.63;;;6.24;100.00
14067;BME280;7108;42.684;23.350;2024-03-08T05:54:16;95535.16;;;6.10;100.00
14067;BME280;7108;42.684;23.350;2024-03-08T05:56:42;95536.25;;;6.09;100.00
14067;BME280;7108;42.684;23.350;2024-03-08T05:59:09;95546.78;;;6.14;100.00
14067;BME280;7108;42.684;23.350;2024-03-08T06:01:35;95555.63;;;6.06;100.00
14067;BME280;7108;42.684;23.350;2024-03-08T06:04:02;95560.34;;;6.09;100.00
14067;BME280;7108;42.684;23.350;2024-03-08T06:06:27;95563.88;;;5.93;100.00
14067;BME280;7108;42.684;23.350;2024-03-08T06:08:53;95566.66;;;5.96;100.00
14067;BME280;7108;42.684;23.350;2024-03-08T06:11:19;95563.75;;;5.81;100.00
14067;BME280;7108;42.684;23.350;2024-03-08T06:13:48;95560.91;;;5.78;100.00
14067;BME280;7108;42.684;23.350;2024-03-08T06:16:15;95565.78;;;5.67;100.00
14067;BME280;7108;42.684;23.350;2024-03-08T06:18:40;95564.53;;;5.65;100.00
14067;BME280;7108;42.684;23.350;2024-03-08T06:21:06;95573.94;;;5.71;100.00
14067;BME280;7108;42.684;23.350;2024-03-08T06:23:33;95568.00;;;5.65;100.00
14067;BME280;7108;42.684;23.350;2024-03-08T06:25:58;95581.69;;;5.81;100.00
14067;BME280;7108;42.684;23.350;2024-03-08T06:28:24;95580.53;;;5.90;100.00
14067;BME280;7108;42.684;23.350;2024-03-08T06:30:50;95580.69;;;5.85;100.00
14067;BME280;7108;42.684;23.350;2024-03-08T06:33:17;95577.41;;;5.88;100.00
14067;BME280;7108;42.684;23.350;2024-03-08T06:35:42;95570.63;;;5.90;100.00
14067;BME280;7108;42.684;23.350;2024-03-08T06:38:08;95572.09;;;5.80;100.00
14067;BME280;7108;42.684;23.350;2024-03-08T06:40:33;95579.63;;;5.78;100.00
14067;BME280;7108;42.684;23.350;2024-03-08T06:42:58;95585.78;;;5.78;100.00
14067;BME280;7108;42.684;23.350;2024-03-08T06:45:24;95579.59;;;5.86;100.00
14067;BME280;7108;42.684;23.350;2024-03-08T06:47:51;95581.97;;;5.87;100.00
14067;BME280;7108;42.684;23.350;2024-03-08T06:50:17;95588.09;;;5.88;100.00
14067;BME280;7108;42.684;23.350;2024-03-08T06:52:42;95585.44;;;5.88;100.00
14067;BME280;7108;42.684;23.350;2024-03-08T06:55:09;95585.25;;;5.93;100.00
14067;BME280;7108;42.684;23.350;2024-03-08T06:57:41;95588.91;;;5.80;100.00
14067;BME280;7108;42.684;23.350;2024-03-08T07:00:08;95576.19;;;5.77;100.00
14067;BME280;7108;42.684;23.350;2024-03-08T07:02:40;95583.53;;;5.80;100.00
14067;BME280;7108;42.684;23.350;2024-03-08T07:05:05;95590.31;;;5.86;100.00
14067;BME280;7108;42.684;23.350;2024-03-08T07:07:31;95572.06;;;5.88;100.00
14067;BME280;7108;42.684;23.350;2024-03-08T07:09:59;95573.47;;;5.86;100.00
14067;BME280;7108;42.684;23.350;2024-03-08T07:12:24;95590.59;;;6.01;100.00
14067;BME280;7108;42.684;23.350;2024-03-08T07:14:50;95584.25;;;6.06;100.00
14067;BME280;7108;42.684;23.350;2024-03-08T07:17:15;95590.84;;;6.08;100.00
14067;BME280;7108;42.684;23.350;2024-03-08T07:19:41;95596.31;;;6.20;100.00
14067;BME280;7108;42.684;23.350;2024-03-08T07:22:07;95576.72;;;6.08;100.00
14067;BME280;7108;42.684;23.350;2024-03-08T07:24:36;95603.44;;;6.16;100.00
14067;BME280;7108;42.684;23.350;2024-03-08T07:27:19;95596.84;;;6.14;100.00
14067;BME280;7108;42.684;23.350;2024-03-08T07:29:45;95586.16;;;6.05;100.00
14067;BME280;7108;42.684;23.350;2024-03-08T07:32:11;95591.34;;;6.10;100.00
14067;BME280;7108;42.684;23.350;2024-03-08T07:34:50;95594.78;;;6.11;100.00
14067;BME280;7108;42.684;23.350;2024-03-08T07:37:17;95591.94;;;6.16;100.00
14067;BME280;7108;42.684;23.350;2024-03-08T07:39:42;95593.44;;;6.34;100.00
14067;BME280;7108;42.684;23.350;2024-03-08T07:42:08;95605.22;;;6.41;100.00
14067;BME280;7108;42.684;23.350;2024-03-08T07:44:35;95608.66;;;6.42;100.00
14067;BME280;7108;42.684;23.350;2024-03-08T07:47:00;95594.03;;;6.39;100.00
14067;BME280;7108;42.684;23.350;2024-03-08T07:49:25;95613.13;;;6.29;100.00
14067;BME280;7108;42.684;23.350;2024-03-08T07:51:51;95616.91;;;6.28;100.00
14067;BME280;7108;42.684;23.350;2024-03-08T07:54:17;95612.16;;;6.34;100.00
14067;BME280;7108;42.684;23.350;2024-03-08T07:56:42;95613.47;;;6.19;100.00
14067;BME280;7108;42.684;23.350;2024-03-08T07:59:08;95599.03;;;6.12;100.00
14067;BME280;7108;42.684;23.350;2024-03-08T08:01:33;95604.03;;;6.22;100.00
14067;BME280;7108;42.684;23.350;2024-03-08T08:03:59;95604.50;;;6.24;100.00
14067;BME280;7108;42.684;23.350;2024-03-08T08:06:27;95604.03;;;6.22;100.00
14067;BME280;7108;42.684;23.350;2024-03-08T08:08:52;95597.88;;;6.30;100.00
14067;BME280;7108;42.684;23.350;2024-03-08T08:11:18;95600.22;;;6.31;100.00
14067;BME280;7108;42.684;23.350;2024-03-08T08:13:45;95605.81;;;6.47;100.00
14067;BME280;7108;42.684;23.350;2024-03-08T08:16:11;95609.25;;;6.55;100.00
14067;BME280;7108;42.684;23.350;2024-03-08T08:18:37;95579.38;;;6.45;100.00
14067;BME280;7108;42.684;23.350;2024-03-08T08:21:04;95587.09;;;6.75;100.00
14067;BME280;7108;42.684;23.350;2024-03-08T08:23:32;95579.38;;;6.94;100.00
14067;BME280;7108;42.684;23.350;2024-03-08T08:25:57;95579.72;;;6.93;100.00
14067;BME280;7108;42.684;23.350;2024-03-08T08:28:22;95584.81;;;7.06;100.00
14067;BME280;7108;42.684;23.350;2024-03-08T08:30:48;95578.66;;;7.06;100.00
14067;BME280;7108;42.684;23.350;2024-03-08T08:33:16;95590.44;;;7.33;100.00
14067;BME280;7108;42.684;23.350;2024-03-08T08:35:42;95572.34;;;7.30;100.00
14067;BME280;7108;42.684;23.350;2024-03-08T08:38:08;95569.41;;;7.23;100.00
14067;BME280;7108;42.684;23.350;2024-03-08T08:40:34;95583.09;;;7.42;100.00
14067;BME280;7108;42.684;23.350;2024-03-08T08:43:02;95590.91;;;7.68;100.00
14067;BME280;7108;42.684;23.350;2024-03-08T08:45:30;95573.88;;;7.52;100.00
14067;BME280;7108;42.684;23.350;2024-03-08T08:47:55;95572.22;;;7.59;100.00
14067;BME280;7108;42.684;23.350;2024-03-08T08:50:21;95572.63;;;7.81;100.00
14067;BME280;7108;42.684;23.350;2024-03-08T08:52:49;95563.56;;;7.74;100.00
14067;BME280;7108;42.684;23.350;2024-03-08T08:55:15;95567.72;;;7.83;100.00
14067;BME280;7108;42.684;23.350;2024-03-08T08:57:41;95562.63;;;7.90;100.00
14067;BME280;7108;42.684;23.350;2024-03-08T09:00:07;95574.38;;;7.98;100.00
14067;BME280;7108;42.684;23.350;2024-03-08T09:02:36;95566.63;;;7.96;100.00
14067;BME280;7108;42.684;23.350;2024-03-08T09:05:03;95551.75;;;7.99;100.00
14067;BME280;7108;42.684;23.350;2024-03-08T09:07:28;95568.22;;;8.09;100.00
14067;BME280;7108;42.684;23.350;2024-03-08T09:09:54;95558.19;;;8.18;100.00
14067;BME280;7108;42.684;23.350;2024-03-08T09:12:24;95553.31;;;8.32;100.00
14067;BME280;7108;42.684;23.350;2024-03-08T09:14:49;95558.00;;;8.35;100.00
14067;BME280;7108;42.684;23.350;2024-03-08T09:17:15;95559.00;;;8.54;100.00
14067;BME280;7108;42.684;23.350;2024-03-08T09:19:46;95552.53;;;8.55;100.00
14067;BME280;7108;42.684;23.350;2024-03-08T09:22:13;95559.91;;;8.47;100.00
14067;BME280;7108;42.684;23.350;2024-03-08T09:24:38;95543.25;;;8.41;100.00
14067;BME280;7108;42.684;23.350;2024-03-08T09:27:04;95562.69;;;8.62;100.00
14067;BME280;7108;42.684;23.350;2024-03-08T09:29:29;95567.97;;;8.58;100.00
14067;BME280;7108;42.684;23.350;2024-03-08T09:31:54;95561.34;;;8.68;100.00
14067;BME280;7108;42.684;23.350;2024-03-08T09:34:21;95551.94;;;8.74;100.00
14067;BME280;7108;42.684;23.350;2024-03-08T09:36:46;95546.34;;;8.79;100.00
14067;BME280;7108;42.684;23.350;2024-03-08T09:39:12;95544.66;;;8.74;100.00
14067;BME280;7108;42.684;23.350;2024-03-08T09:41:43;95552.16;;;8.81;100.00
14067;BME280;7108;42.684;23.350;2024-03-08T09:44:09;95556.94;;;8.87;100.00
14067;BME280;7108;42.684;23.350;2024-03-08T09:46:34;95556.94;;;8.87;100.00
14067;BME280;7108;42.684;23.350;2024-03-08T09:49:00;95554.94;;;8.84;100.00
14067;BME280;7108;42.684;23.350;2024-03-08T09:51:28;95557.97;;;8.83;100.00
14067;BME280;7108;42.684;23.350;2024-03-08T09:53:54;95546.13;;;8.84;100.00
14067;BME280;7108;42.684;23.350;2024-03-08T09:56:21;95564.78;;;8.92;100.00
14067;BME280;7108;42.684;23.350;2024-03-08T09:58:48;95553.97;;;8.77;100.00
14067;BME280;7108;42.684;23.350;2024-03-08T10:01:37;95546.91;;;8.72;100.00
14067;BME280;7108;42.684;23.350;2024-03-08T10:04:04;95556.41;;;8.94;100.00
14067;BME280;7108;42.684;23.350;2024-03-08T10:06:29;95557.78;;;9.15;100.00
14067;BME280;7108;42.684;23.350;2024-03-08T10:08:58;95561.50;;;9.11;100.00
14067;BME280;7108;42.684;23.350;2024-03-08T10:11:27;95564.41;;;9.06;100.00
14067;BME280;7108;42.684;23.350;2024-03-08T10:13:52;95548.81;;;8.84;100.00
14067;BME280;7108;42.684;23.350;2024-03-08T10:16:18;95560.53;;;8.91;100.00
14067;BME280;7108;42.684;23.350;2024-03-08T10:18:45;95531.75;;;8.92;100.00
14067;BME280;7108;42.684;23.350;2024-03-08T10:21:11;95537.34;;;8.99;100.00
14067;BME280;7108;42.684;23.350;2024-03-08T10:23:37;95546.75;;;9.05;100.00
14067;BME280;7108;42.684;23.350;2024-03-08T10:26:16;95544.84;;;9.05;100.00
14067;BME280;7108;42.684;23.350;2024-03-08T10:28:45;95548.50;;;9.13;100.00
14067;BME280;7108;42.684;23.350;2024-03-08T10:31:13;95537.31;;;9.11;100.00
14067;BME280;7108;42.684;23.350;2024-03-08T10:33:40;95536.63;;;9.25;100.00
14067;BME280;7108;42.684;23.350;2024-03-08T10:36:10;95534.22;;;9.36;100.00
14067;BME280;7108;42.684;23.350;2024-03-08T10:38:41;95532.13;;;9.29;100.00
14067;BME280;7108;42.684;23.350;2024-03-08T10:41:08;95540.53;;;9.28;100.00
14067;BME280;7108;42.684;23.350;2024-03-08T10:49:08;95526.91;;;9.09;100.00
14067;BME280;7108;42.684;23.350;2024-03-08T10:51:38;95522.66;;;9.08;100.00
14067;BME280;7108;42.684;23.350;2024-03-08T10:54:07;95511.28;;;8.87;100.00
14067;BME280;7108;42.684;23.350;2024-03-08T10:56:34;95531.53;;;8.97;100.00
14067;BME280;7108;42.684;23.350;2024-03-08T10:59:00;95514.88;;;8.79;100.00
14067;BME280;7108;42.684;23.350;2024-03-08T11:01:25;95532.47;;;8.77;100.00
14067;BME280;7108;42.684;23.350;2024-03-08T11:03:51;95515.66;;;8.80;100.00
14067;BME280;7108;42.684;23.350;2024-03-08T11:08:49;95508.44;;;9.08;100.00
14067;BME280;7108;42.684;23.350;2024-03-08T11:11:26;95505.84;;;9.38;100.00
14067;BME280;7108;42.684;23.350;2024-03-08T11:13:53;95508.25;;;9.55;100.00
14067;BME280;7108;42.684;23.350;2024-03-08T11:18:53;95500.88;;;9.25;100.00
14067;BME280;7108;42.684;23.350;2024-03-08T11:21:19;95495.34;;;9.33;100.00
14067;BME280;7108;42.684;23.350;2024-03-08T11:23:59;95504.84;;;9.58;100.00
14067;BME280;7108;42.684;23.350;2024-03-08T11:26:24;95499.69;;;9.65;100.00
14067;BME280;7108;42.684;23.350;2024-03-08T11:28:50;95499.94;;;9.60;100.00
14067;BME280;7108;42.684;23.350;2024-03-08T11:31:22;95495.50;;;9.68;100.00
14067;BME280;7108;42.684;23.350;2024-03-08T11:33:48;95475.88;;;9.67;100.00
14067;BME280;7108;42.684;23.350;2024-03-08T11:36:24;95471.56;;;9.78;100.00
14067;BME280;7108;42.684;23.350;2024-03-08T11:38:52;95482.34;;;9.93;100.00
14067;BME280;7108;42.684;23.350;2024-03-08T11:41:24;95484.78;;;10.14;100.00
14067;BME280;7108;42.684;23.350;2024-03-08T11:44:03;95465.63;;;10.00;100.00
14067;BME280;7108;42.684;23.350;2024-03-08T11:46:30;95458.50;;;10.07;100.00
14067;BME280;7108;42.684;23.350;2024-03-08T11:48:56;95476.63;;;10.26;100.00
14067;BME280;7108;42.684;23.350;2024-03-08T11:51:22;95471.09;;;10.19;100.00
14067;BME280;7108;42.684;23.350;2024-03-08T11:53:49;95465.53;;;10.12;100.00
14067;BME280;7108;42.684;23.350;2024-03-08T11:56:15;95458.84;;;10.21;100.00
14067;BME280;7108;42.684;23.350;2024-03-08T11:58:42;95457.38;;;10.24;100.00
14067;BME280;7108;42.684;23.350;2024-03-08T12:01:17;95479.66;;;10.09;100.00
14067;BME280;7108;42.684;23.350;2024-03-08T12:03:43;95476.91;;;10.21;100.00
14067;BME280;7108;42.684;23.350;2024-03-08T12:06:09;95468.28;;;10.31;100.00
14067;BME280;7108;42.684;23.350;2024-03-08T12:08:37;95467.97;;;10.17;100.00
14067;BME280;7108;42.684;23.350;2024-03-08T12:11:06;95462.56;;;10.17;100.00
14067;BME280;7108;42.684;23.350;2024-03-08T12:13:33;95472.19;;;10.33;100.00
14067;BME280;7108;42.684;23.350;2024-03-08T12:16:00;95460.81;;;10.40;100.00
14067;BME280;7108;42.684;23.350;2024-03-08T12:18:26;95468.00;;;10.51;100.00
14067;BME280;7108;42.684;23.350;2024-03-08T12:21:04;95470.59;;;10.63;100.00
14067;BME280;7108;42.684;23.350;2024-03-08T12:23:31;95443.69;;;10.66;100.00
14067;BME280;7108;42.684;23.350;2024-03-08T12:25:56;95455.81;;;10.91;100.00
14067;BME280;7108;42.684;23.350;2024-03-08T12:28:22;95449.75;;;10.79;100.00
14067;BME280;7108;42.684;23.350;2024-03-08T12:30:51;95446.41;;;10.66;100.00
14067;BME280;7108;42.684;23.350;2024-03-08T12:33:19;95451.66;;;10.59;100.00
14067;BME280;7108;42.684;23.350;2024-03-08T12:35:55;95456.69;;;10.45;100.00
14067;BME280;7108;42.684;23.350;2024-03-08T12:38:23;95469.59;;;10.37;100.00
14067;BME280;7108;42.684;23.350;2024-03-08T12:40:50;95448.66;;;10.30;100.00
14067;BME280;7108;42.684;23.350;2024-03-08T12:43:16;95459.84;;;10.47;100.00
14067;BME280;7108;42.684;23.350;2024-03-08T12:45:41;95447.75;;;10.57;100.00
14067;BME280;7108;42.684;23.350;2024-03-08T12:48:13;95441.16;;;10.54;100.00
14067;BME280;7108;42.684;23.350;2024-03-08T12:50:41;95441.44;;;10.68;100.00
14067;BME280;7108;42.684;23.350;2024-03-08T12:53:13;95447.22;;;10.51;100.00
14067;BME280;7108;42.684;23.350;2024-03-08T12:55:38;95441.91;;;10.55;100.00
14067;BME280;7108;42.684;23.350;2024-03-08T12:58:05;95443.91;;;10.58;100.00
14067;BME280;7108;42.684;23.350;2024-03-08T13:00:33;95429.34;;;10.44;100.00
14067;BME280;7108;42.684;23.350;2024-03-08T13:03:01;95437.31;;;10.21;100.00
14067;BME280;7108;42.684;23.350;2024-03-08T13:05:27;95434.72;;;10.09;100.00
14067;BME280;7108;42.684;23.350;2024-03-08T13:07:52;95446.50;;;10.05;100.00